sensor_id;sensor_type;location;lat;lon;timestamp;P1;durP1;ratioP1;P2;durP2;ratioP2
77262;SDS011;66373;52.334;4.806;2023-04-28T00:00:56;8.52;;;5.88;;
77262;SDS011;66373;52.334;4.806;2023-04-28T00:03:24;6.30;;;5.28;;
77262;SDS011;66373;52.334;4.806;2023-04-28T00:05:52;6.90;;;5.40;;
77262;SDS011;66373;52.334;4.806;2023-04-28T00:08:19;7.70;;;5.40;;
77262;SDS011;66373;52.334;4.806;2023-04-28T00:10:47;7.15;;;5.43;;
77262;SDS011;66373;52.334;4.806;2023-04-28T00:13:14;6.80;;;5.30;;
77262;SDS011;66373;52.334;4.806;2023-04-28T00:15:41;5.93;;;5.10;;
77262;SDS011;66373;52.334;4.806;2023-04-28T00:18:08;8.73;;;5.10;;
77262;SDS011;66373;52.334;4.806;2023-04-28T00:20:37;6.57;;;4.82;;
77262;SDS011;66373;52.334;4.806;2023-04-28T00:23:04;8.30;;;5.07;;
77262;SDS011;66373;52.334;4.806;2023-04-28T00:25:31;6.90;;;4.68;;
77262;SDS011;66373;52.334;4.806;2023-04-28T00:27:58;6.75;;;5.03;;
77262;SDS011;66373;52.334;4.806;2023-04-28T00:30:26;6.40;;;4.60;;
77262;SDS011;66373;52.334;4.806;2023-04-28T00:32:53;6.40;;;4.43;;
77262;SDS011;66373;52.334;4.806;2023-04-28T00:35:20;5.75;;;4.43;;
77262;SDS011;66373;52.334;4.806;2023-04-28T00:37:49;6.85;;;4.40;;
77262;SDS011;66373;52.334;4.806;2023-04-28T00:40:16;6.00;;;4.70;;
77262;SDS011;66373;52.334;4.806;2023-04-28T00:42:46;5.05;;;4.28;;
77262;SDS011;66373;52.334;4.806;2023-04-28T00:45:13;4.32;;;3.85;;
77262;SDS011;66373;52.334;4.806;2023-04-28T00:47:40;6.57;;;3.55;;
77262;SDS011;66373;52.334;4.806;2023-04-28T00:50:08;5.53;;;4.00;;
77262;SDS011;66373;52.334;4.806;2023-04-28T00:52:35;4.53;;;4.13;;
77262;SDS011;66373;52.334;4.806;2023-04-28T00:55:06;5.93;;;4.32;;
77262;SDS011;66373;52.334;4.806;2023-04-28T00:57:35;5.30;;;3.75;;
77262;SDS011;66373;52.334;4.806;2023-04-28T01:00:02;4.15;;;3.60;;
77262;SDS011;66373;52.334;4.806;2023-04-28T01:02:30;4.55;;;4.03;;
77262;SDS011;66373;52.334;4.806;2023-04-28T01:04:58;3.85;;;3.55;;
77262;SDS011;66373;52.334;4.806;2023-04-28T01:07:25;4.07;;;3.67;;
77262;SDS011;66373;52.334;4.806;2023-04-28T01:09:53;4.00;;;3.40;;
77262;SDS011;66373;52.334;4.806;2023-04-28T01:14:54;3.38;;;3.08;;
77262;SDS011;66373;52.334;4.806;2023-04-28T01:17:22;3.95;;;3.55;;
77262;SDS011;66373;52.334;4.806;2023-04-28T01:19:49;3.50;;;3.15;;
77262;SDS011;66373;52.334;4.806;2023-04-28T01:22:17;3.65;;;3.30;;
77262;SDS011;66373;52.334;4.806;2023-04-28T01:24:46;3.65;;;3.25;;
77262;SDS011;66373;52.334;4.806;2023-04-28T01:27:13;3.72;;;3.22;;
77262;SDS011;66373;52.334;4.806;2023-04-28T01:29:40;5.18;;;3.30;;
77262;SDS011;66373;52.334;4.806;2023-04-28T01:32:07;2.92;;;2.72;;
77262;SDS011;66373;52.334;4.806;2023-04-28T01:34:35;3.05;;;2.85;;
77262;SDS011;66373;52.334;4.806;2023-04-28T01:37:04;4.25;;;3.30;;
77262;SDS011;66373;52.334;4.806;2023-04-28T01:39:31;3.42;;;3.13;;
77262;SDS011;66373;52.334;4.806;2023-04-28T01:42:03;3.97;;;3.67;;
77262;SDS011;66373;52.334;4.806;2023-04-28T01:44:31;3.97;;;3.08;;
77262;SDS011;66373;52.334;4.806;2023-04-28T01:46:58;3.75;;;3.45;;
77262;SDS011;66373;52.334;4.806;2023-04-28T01:49:25;3.15;;;2.90;;
77262;SDS011;66373;52.334;4.806;2023-04-28T01:51:52;3.67;;;2.97;;
77262;SDS011;66373;52.334;4.806;2023-04-28T01:54:19;2.97;;;2.78;;
77262;SDS011;66373;52.334;4.806;2023-04-28T01:56:47;3.28;;;3.00;;
77262;SDS011;66373;52.334;4.806;2023-04-28T01:59:17;3.47;;;3.10;;
77262;SDS011;66373;52.334;4.806;2023-04-28T02:01:45;3.40;;;2.83;;
77262;SDS011;66373;52.334;4.806;2023-04-28T02:04:12;5.35;;;3.05;;
77262;SDS011;66373;52.334;4.806;2023-04-28T02:06:39;3.22;;;2.92;;
77262;SDS011;66373;52.334;4.806;2023-04-28T02:09:06;3.30;;;2.78;;
77262;SDS011;66373;52.334;4.806;2023-04-28T02:11:33;3.90;;;3.05;;
77262;SDS011;66373;52.334;4.806;2023-04-28T02:14:00;2.85;;;2.65;;
77262;SDS011;66373;52.334;4.806;2023-04-28T02:16:28;2.92;;;2.70;;
77262;SDS011;66373;52.334;4.806;2023-04-28T02:18:55;2.97;;;2.78;;
77262;SDS011;66373;52.334;4.806;2023-04-28T02:21:24;2.92;;;2.72;;
77262;SDS011;66373;52.334;4.806;2023-04-28T02:23:52;2.53;;;2.30;;
77262;SDS011;66373;52.334;4.806;2023-04-28T02:26:19;3.05;;;2.78;;
77262;SDS011;66373;52.334;4.806;2023-04-28T02:28:50;2.70;;;2.50;;
77262;SDS011;66373;52.334;4.806;2023-04-28T02:31:17;2.70;;;2.50;;
77262;SDS011;66373;52.334;4.806;2023-04-28T02:33:46;2.70;;;2.50;;
77262;SDS011;66373;52.334;4.806;2023-04-28T02:36:18;2.75;;;2.55;;
77262;SDS011;66373;52.334;4.806;2023-04-28T02:38:45;3.65;;;2.92;;
77262;SDS011;66373;52.334;4.806;2023-04-28T02:41:12;2.55;;;2.35;;
77262;SDS011;66373;52.334;4.806;2023-04-28T02:43:40;2.38;;;2.22;;
77262;SDS011;66373;52.334;4.806;2023-04-28T02:46:07;2.35;;;2.22;;
77262;SDS011;66373;52.334;4.806;2023-04-28T02:48:34;2.45;;;2.13;;
77262;SDS011;66373;52.334;4.806;2023-04-28T02:51:03;2.70;;;2.50;;
77262;SDS011;66373;52.334;4.806;2023-04-28T02:53:31;2.50;;;2.30;;
77262;SDS011;66373;52.334;4.806;2023-04-28T02:55:58;2.28;;;2.17;;
77262;SDS011;66373;52.334;4.806;2023-04-28T02:58:27;3.88;;;2.50;;
77262;SDS011;66373;52.334;4.806;2023-04-28T03:00:54;3.00;;;2.55;;
77262;SDS011;66373;52.334;4.806;2023-04-28T03:03:21;2.95;;;2.50;;
77262;SDS011;66373;52.334;4.806;2023-04-28T03:05:48;2.92;;;2.72;;
77262;SDS011;66373;52.334;4.806;2023-04-28T03:08:16;2.97;;;2.78;;
77262;SDS011;66373;52.334;4.806;2023-04-28T03:10:45;3.25;;;2.40;;
77262;SDS011;66373;52.334;4.806;2023-04-28T03:13:12;2.42;;;2.22;;
77262;SDS011;66373;52.334;4.806;2023-04-28T03:15:40;2.50;;;2.40;;
77262;SDS011;66373;52.334;4.806;2023-04-28T03:18:08;2.40;;;2.30;;
77262;SDS011;66373;52.334;4.806;2023-04-28T03:20:35;2.30;;;2.20;;
77262;SDS011;66373;52.334;4.806;2023-04-28T03:23:02;4.57;;;2.05;;
77262;SDS011;66373;52.334;4.806;2023-04-28T03:25:30;2.38;;;2.17;;
77262;SDS011;66373;52.334;4.806;2023-04-28T03:27:57;3.20;;;2.33;;
77262;SDS011;66373;52.334;4.806;2023-04-28T03:30:24;2.40;;;2.30;;
77262;SDS011;66373;52.334;4.806;2023-04-28T03:32:51;3.25;;;2.22;;
77262;SDS011;66373;52.334;4.806;2023-04-28T03:35:18;2.63;;;2.42;;
77262;SDS011;66373;52.334;4.806;2023-04-28T03:37:45;2.97;;;2.28;;
77262;SDS011;66373;52.334;4.806;2023-04-28T03:40:13;2.30;;;2.20;;
77262;SDS011;66373;52.334;4.806;2023-04-28T03:43:10;2.60;;;2.03;;
77262;SDS011;66373;52.334;4.806;2023-04-28T03:45:47;2.30;;;2.20;;
77262;SDS011;66373;52.334;4.806;2023-04-28T03:48:15;2.55;;;2.30;;
77262;SDS011;66373;52.334;4.806;2023-04-28T03:50:42;2.60;;;2.10;;
77262;SDS011;66373;52.334;4.806;2023-04-28T03:53:10;2.17;;;2.05;;
77262;SDS011;66373;52.334;4.806;2023-04-28T03:55:37;2.33;;;2.22;;
77262;SDS011;66373;52.334;4.806;2023-04-28T03:58:04;2.03;;;1.90;;
77262;SDS011;66373;52.334;4.806;2023-04-28T04:00:34;2.67;;;2.50;;
77262;SDS011;66373;52.334;4.806;2023-04-28T04:03:01;2.33;;;2.10;;
77262;SDS011;66373;52.334;4.806;2023-04-28T04:05:28;2.50;;;2.30;;
77262;SDS011;66373;52.334;4.806;2023-04-28T04:07:55;2.38;;;2.10;;
77262;SDS011;66373;52.334;4.806;2023-04-28T04:10:23;2.33;;;2.13;;
77262;SDS011;66373;52.334;4.806;2023-04-28T04:12:51;2.17;;;2.08;;
77262;SDS011;66373;52.334;4.806;2023-04-28T04:15:18;2.20;;;2.10;;
77262;SDS011;66373;52.334;4.806;2023-04-28T04:17:48;2.30;;;2.20;;
77262;SDS011;66373;52.334;4.806;2023-04-28T04:20:15;2.40;;;2.20;;
77262;SDS011;66373;52.334;4.806;2023-04-28T04:22:44;2.50;;;2.30;;
77262;SDS011;66373;52.334;4.806;2023-04-28T04:25:12;2.20;;;2.10;;
77262;SDS011;66373;52.334;4.806;2023-04-28T04:27:41;2.00;;;1.90;;
77262;SDS011;66373;52.334;4.806;2023-04-28T04:30:08;2.60;;;2.40;;
77262;SDS011;66373;52.334;4.806;2023-04-28T04:32:36;3.03;;;2.30;;
77262;SDS011;66373;52.334;4.806;2023-04-28T04:35:05;2.28;;;2.17;;
77262;SDS011;66373;52.334;4.806;2023-04-28T04:37:32;2.20;;;2.10;;
77262;SDS011;66373;52.334;4.806;2023-04-28T04:40:01;2.40;;;2.20;;
77262;SDS011;66373;52.334;4.806;2023-04-28T04:42:33;2.50;;;2.10;;
77262;SDS011;66373;52.334;4.806;2023-04-28T04:45:11;2.60;;;2.40;;
77262;SDS011;66373;52.334;4.806;2023-04-28T04:47:38;2.10;;;2.00;;
77262;SDS011;66373;52.334;4.806;2023-04-28T04:50:07;2.10;;;2.00;;
77262;SDS011;66373;52.334;4.806;2023-04-28T04:52:35;2.15;;;2.05;;
77262;SDS011;66373;52.334;4.806;2023-04-28T04:55:03;2.08;;;1.98;;
77262;SDS011;66373;52.334;4.806;2023-04-28T04:57:31;2.20;;;2.10;;
77262;SDS011;66373;52.334;4.806;2023-04-28T05:00:08;2.05;;;1.92;;
77262;SDS011;66373;52.334;4.806;2023-04-28T05:02:37;2.42;;;2.22;;
77262;SDS011;66373;52.334;4.806;2023-04-28T05:05:04;2.20;;;2.10;;
77262;SDS011;66373;52.334;4.806;2023-04-28T05:07:35;2.58;;;2.38;;
77262;SDS011;66373;52.334;4.806;2023-04-28T05:10:02;2.17;;;2.08;;
77262;SDS011;66373;52.334;4.806;2023-04-28T05:12:31;2.08;;;1.98;;
77262;SDS011;66373;52.334;4.806;2023-04-28T05:14:58;2.50;;;2.30;;
77262;SDS011;66373;52.334;4.806;2023-04-28T05:17:25;2.72;;;2.20;;
77262;SDS011;66373;52.334;4.806;2023-04-28T05:19:52;2.22;;;2.13;;
77262;SDS011;66373;52.334;4.806;2023-04-28T05:22:21;2.13;;;2.00;;
77262;SDS011;66373;52.334;4.806;2023-04-28T05:24:48;3.25;;;2.30;;
77262;SDS011;66373;52.334;4.806;2023-04-28T05:27:15;2.33;;;2.17;;
77262;SDS011;66373;52.334;4.806;2023-04-28T05:29:44;2.33;;;2.20;;
77262;SDS011;66373;52.334;4.806;2023-04-28T05:32:11;2.35;;;2.25;;
77262;SDS011;66373;52.334;4.806;2023-04-28T05:34:38;2.65;;;2.45;;
77262;SDS011;66373;52.334;4.806;2023-04-28T05:37:05;2.00;;;1.90;;
77262;SDS011;66373;52.334;4.806;2023-04-28T05:39:35;2.42;;;2.10;;
77262;SDS011;66373;52.334;4.806;2023-04-28T05:42:04;2.25;;;2.15;;
77262;SDS011;66373;52.334;4.806;2023-04-28T05:44:33;2.50;;;2.30;;
77262;SDS011;66373;52.334;4.806;2023-04-28T05:47:00;2.20;;;2.10;;
77262;SDS011;66373;52.334;4.806;2023-04-28T05:49:27;2.42;;;2.22;;
77262;SDS011;66373;52.334;4.806;2023-04-28T05:51:54;2.00;;;1.90;;
77262;SDS011;66373;52.334;4.806;2023-04-28T05:54:21;2.30;;;2.10;;
77262;SDS011;66373;52.334;4.806;2023-04-28T05:56:52;2.17;;;2.05;;
77262;SDS011;66373;52.334;4.806;2023-04-28T05:59:19;2.20;;;2.10;;
77262;SDS011;66373;52.334;4.806;2023-04-28T06:01:47;2.95;;;2.17;;
77262;SDS011;66373;52.334;4.806;2023-04-28T06:04:15;2.00;;;1.90;;
77262;SDS011;66373;52.334;4.806;2023-04-28T06:06:45;2.50;;;2.00;;
77262;SDS011;66373;52.334;4.806;2023-04-28T06:09:12;2.00;;;1.90;;
77262;SDS011;66373;52.334;4.806;2023-04-28T06:11:39;2.00;;;1.90;;
77262;SDS011;66373;52.334;4.806;2023-04-28T06:14:08;2.00;;;1.90;;
77262;SDS011;66373;52.334;4.806;2023-04-28T06:16:36;2.20;;;2.10;;
77262;SDS011;66373;52.334;4.806;2023-04-28T06:19:03;2.20;;;2.10;;
77262;SDS011;66373;52.334;4.806;2023-04-28T06:21:30;2.45;;;2.25;;
77262;SDS011;66373;52.334;4.806;2023-04-28T06:23:57;2.78;;;2.38;;
77262;SDS011;66373;52.334;4.806;2023-04-28T06:26:26;2.20;;;2.10;;
77262;SDS011;66373;52.334;4.806;2023-04-28T06:28:53;2.03;;;1.92;;
77262;SDS011;66373;52.334;4.806;2023-04-28T06:31:25;2.50;;;2.30;;
77262;SDS011;66373;52.334;4.806;2023-04-28T06:33:52;2.22;;;2.13;;
77262;SDS011;66373;52.334;4.806;2023-04-28T06:36:24;2.30;;;2.00;;
77262;SDS011;66373;52.334;4.806;2023-04-28T06:38:52;2.15;;;1.90;;
77262;SDS011;66373;52.334;4.806;2023-04-28T06:41:20;2.58;;;2.38;;
77262;SDS011;66373;52.334;4.806;2023-04-28T06:43:49;2.40;;;2.30;;
77262;SDS011;66373;52.334;4.806;2023-04-28T06:46:22;2.50;;;2.40;;
77262;SDS011;66373;52.334;4.806;2023-04-28T06:48:50;2.40;;;2.20;;
77262;SDS011;66373;52.334;4.806;2023-04-28T06:51:17;2.20;;;2.10;;
77262;SDS011;66373;52.334;4.806;2023-04-28T06:53:45;2.20;;;2.10;;
77262;SDS011;66373;52.334;4.806;2023-04-28T06:56:12;2.30;;;2.05;;
77262;SDS011;66373;52.334;4.806;2023-04-28T06:58:39;2.60;;;2.40;;
77262;SDS011;66373;52.334;4.806;2023-04-28T07:01:07;3.05;;;2.33;;
77262;SDS011;66373;52.334;4.806;2023-04-28T07:03:34;2.40;;;2.20;;
77262;SDS011;66373;52.334;4.806;2023-04-28T07:06:03;2.38;;;2.13;;
77262;SDS011;66373;52.334;4.806;2023-04-28T07:08:30;2.10;;;2.00;;
77262;SDS011;66373;52.334;4.806;2023-04-28T07:10:58;2.42;;;2.33;;
77262;SDS011;66373;52.334;4.806;2023-04-28T07:13:28;2.10;;;1.95;;
77262;SDS011;66373;52.334;4.806;2023-04-28T07:15:55;1.88;;;1.77;;
77262;SDS011;66373;52.334;4.806;2023-04-28T07:18:22;3.28;;;2.15;;
77262;SDS011;66373;52.334;4.806;2023-04-28T07:20:50;2.40;;;2.20;;
77262;SDS011;66373;52.334;4.806;2023-04-28T07:23:18;2.17;;;2.00;;
77262;SDS011;66373;52.334;4.806;2023-04-28T07:25:45;2.03;;;1.92;;
77262;SDS011;66373;52.334;4.806;2023-04-28T07:28:12;2.50;;;2.10;;
77262;SDS011;66373;52.334;4.806;2023-04-28T07:30:40;2.35;;;2.25;;
77262;SDS011;66373;52.334;4.806;2023-04-28T07:33:07;2.38;;;2.17;;
77262;SDS011;66373;52.334;4.806;2023-04-28T07:35:34;2.75;;;2.38;;
77262;SDS011;66373;52.334;4.806;2023-04-28T07:38:01;2.67;;;2.47;;
77262;SDS011;66373;52.334;4.806;2023-04-28T07:40:33;2.20;;;2.10;;
77262;SDS011;66373;52.334;4.806;2023-04-28T07:43:01;2.13;;;2.00;;
77262;SDS011;66373;52.334;4.806;2023-04-28T07:45:28;2.60;;;2.40;;
77262;SDS011;66373;52.334;4.806;2023-04-28T07:47:56;2.15;;;2.00;;
77262;SDS011;66373;52.334;4.806;2023-04-28T07:50:23;2.40;;;2.20;;
77262;SDS011;66373;52.334;4.806;2023-04-28T07:52:50;2.58;;;2.20;;
77262;SDS011;66373;52.334;4.806;2023-04-28T07:55:18;2.28;;;2.17;;
77262;SDS011;66373;52.334;4.806;2023-04-28T07:57:46;2.05;;;1.92;;
77262;SDS011;66373;52.334;4.806;2023-04-28T08:00:14;2.10;;;2.00;;
77262;SDS011;66373;52.334;4.806;2023-04-28T08:02:42;2.35;;;2.22;;
77262;SDS011;66373;52.334;4.806;2023-04-28T08:05:09;2.20;;;2.10;;
77262;SDS011;66373;52.334;4.806;2023-04-28T08:07:36;2.45;;;2.33;;
77262;SDS011;66373;52.334;4.806;2023-04-28T08:10:03;2.70;;;2.50;;
77262;SDS011;66373;52.334;4.806;2023-04-28T08:12:30;2.50;;;2.40;;
77262;SDS011;66373;52.334;4.806;2023-04-28T08:14:59;4.22;;;2.30;;
77262;SDS011;66373;52.334;4.806;2023-04-28T08:17:26;2.65;;;2.45;;
77262;SDS011;66373;52.334;4.806;2023-04-28T08:19:53;2.30;;;2.20;;
77262;SDS011;66373;52.334;4.806;2023-04-28T08:22:20;2.20;;;2.10;;
77262;SDS011;66373;52.334;4.806;2023-04-28T08:24:47;2.50;;;2.40;;
77262;SDS011;66373;52.334;4.806;2023-04-28T08:27:14;2.97;;;2.22;;
77262;SDS011;66373;52.334;4.806;2023-04-28T08:29:41;2.20;;;2.10;;
77262;SDS011;66373;52.334;4.806;2023-04-28T08:32:10;2.65;;;2.38;;
77262;SDS011;66373;52.334;4.806;2023-04-28T08:34:37;2.42;;;2.33;;
77262;SDS011;66373;52.334;4.806;2023-04-28T08:37:05;2.20;;;2.10;;
77262;SDS011;66373;52.334;4.806;2023-04-28T08:39:31;2.78;;;2.35;;
77262;SDS011;66373;52.334;4.806;2023-04-28T08:42:01;2.30;;;2.20;;
77262;SDS011;66373;52.334;4.806;2023-04-28T08:44:32;2.33;;;2.22;;
77262;SDS011;66373;52.334;4.806;2023-04-28T08:47:02;2.38;;;2.15;;
77262;SDS011;66373;52.334;4.806;2023-04-28T08:49:38;2.65;;;2.45;;
77262;SDS011;66373;52.334;4.806;2023-04-28T08:52:08;2.53;;;2.33;;
77262;SDS011;66373;52.334;4.806;2023-04-28T08:54:37;2.40;;;2.20;;
77262;SDS011;66373;52.334;4.806;2023-04-28T08:57:07;2.58;;;2.28;;
77262;SDS011;66373;52.334;4.806;2023-04-28T08:59:37;2.63;;;2.42;;
77262;SDS011;66373;52.334;4.806;2023-04-28T09:02:06;2.40;;;2.30;;
77262;SDS011;66373;52.334;4.806;2023-04-28T09:04:33;2.47;;;2.28;;
77262;SDS011;66373;52.334;4.806;2023-04-28T09:07:01;2.70;;;2.50;;
77262;SDS011;66373;52.334;4.806;2023-04-28T09:09:29;2.20;;;2.10;;
77262;SDS011;66373;52.334;4.806;2023-04-28T09:11:57;2.85;;;2.65;;
77262;SDS011;66373;52.334;4.806;2023-04-28T09:14:26;2.42;;;2.30;;
77262;SDS011;66373;52.334;4.806;2023-04-28T09:16:55;2.35;;;2.25;;
77262;SDS011;66373;52.334;4.806;2023-04-28T09:19:23;2.30;;;2.20;;
77262;SDS011;66373;52.334;4.806;2023-04-28T09:21:51;2.35;;;2.17;;
77262;SDS011;66373;52.334;4.806;2023-04-28T09:24:28;2.42;;;2.25;;
77262;SDS011;66373;52.334;4.806;2023-04-28T09:26:56;3.53;;;2.20;;
77262;SDS011;66373;52.334;4.806;2023-04-28T09:29:24;2.03;;;1.92;;
77262;SDS011;66373;52.334;4.806;2023-04-28T09:31:52;2.50;;;2.30;;
77262;SDS011;66373;52.334;4.806;2023-04-28T09:34:20;2.50;;;2.40;;
77262;SDS011;66373;52.334;4.806;2023-04-28T09:36:47;2.92;;;2.72;;
77262;SDS011;66373;52.334;4.806;2023-04-28T09:39:28;2.42;;;2.33;;
77262;SDS011;66373;52.334;4.806;2023-04-28T09:41:56;2.70;;;2.50;;
77262;SDS011;66373;52.334;4.806;2023-04-28T09:44:28;2.42;;;2.30;;
77262;SDS011;66373;52.334;4.806;2023-04-28T09:46:55;3.45;;;2.33;;
77262;SDS011;66373;52.334;4.806;2023-04-28T09:49:22;2.50;;;2.38;;
77262;SDS011;66373;52.334;4.806;2023-04-28T09:51:50;2.00;;;1.90;;
77262;SDS011;66373;52.334;4.806;2023-04-28T09:54:17;2.42;;;2.25;;
77262;SDS011;66373;52.334;4.806;2023-04-28T09:56:49;2.40;;;2.30;;
77262;SDS011;66373;52.334;4.806;2023-04-28T09:59:17;2.83;;;2.63;;
77262;SDS011;66373;52.334;4.806;2023-04-28T10:01:46;2.97;;;2.33;;
77262;SDS011;66373;52.334;4.806;2023-04-28T10:04:14;2.15;;;2.05;;
77262;SDS011;66373;52.334;4.806;2023-04-28T10:06:44;3.17;;;1.92;;
77262;SDS011;66373;52.334;4.806;2023-04-28T10:09:12;2.78;;;2.30;;
77262;SDS011;66373;52.334;4.806;2023-04-28T10:11:41;3.13;;;2.53;;
77262;SDS011;66373;52.334;4.806;2023-04-28T10:14:10;2.20;;;2.10;;
77262;SDS011;66373;52.334;4.806;2023-04-28T10:16:37;3.00;;;2.20;;
77262;SDS011;66373;52.334;4.806;2023-04-28T10:19:05;2.80;;;2.47;;
77262;SDS011;66373;52.334;4.806;2023-04-28T10:21:36;2.60;;;2.40;;
77262;SDS011;66373;52.334;4.806;2023-04-28T10:24:14;3.33;;;2.38;;
77262;SDS011;66373;52.334;4.806;2023-04-28T10:29:33;4.35;;;2.40;;
77262;SDS011;66373;52.334;4.806;2023-04-28T10:32:13;2.45;;;2.17;;
77262;SDS011;66373;52.334;4.806;2023-04-28T10:34:43;2.53;;;2.42;;
77262;SDS011;66373;52.334;4.806;2023-04-28T10:37:10;3.22;;;2.58;;
77262;SDS011;66373;52.334;4.806;2023-04-28T10:39:39;2.90;;;2.25;;
77262;SDS011;66373;52.334;4.806;2023-04-28T10:45:09;6.38;;;2.67;;
77262;SDS011;66373;52.334;4.806;2023-04-28T10:50:30;2.60;;;2.40;;
77262;SDS011;66373;52.334;4.806;2023-04-28T10:52:58;2.55;;;2.33;;
77262;SDS011;66373;52.334;4.806;2023-04-28T10:55:25;2.33;;;2.22;;
77262;SDS011;66373;52.334;4.806;2023-04-28T11:04:04;3.40;;;2.47;;
77262;SDS011;66373;52.334;4.806;2023-04-28T11:06:40;2.95;;;2.50;;
77262;SDS011;66373;52.334;4.806;2023-04-28T11:12:09;2.97;;;2.60;;
77262;SDS011;66373;52.334;4.806;2023-04-28T11:14:37;2.65;;;2.45;;
77262;SDS011;66373;52.334;4.806;2023-04-28T11:17:07;2.22;;;2.13;;
77262;SDS011;66373;52.334;4.806;2023-04-28T11:19:37;2.72;;;2.53;;
77262;SDS011;66373;52.334;4.806;2023-04-28T11:22:15;3.30;;;2.20;;
77262;SDS011;66373;52.334;4.806;2023-04-28T11:24:53;4.00;;;2.50;;
77262;SDS011;66373;52.334;4.806;2023-04-28T11:27:23;3.17;;;2.88;;
77262;SDS011;66373;52.334;4.806;2023-04-28T11:29:51;3.05;;;2.60;;
77262;SDS011;66373;52.334;4.806;2023-04-28T11:32:26;3.20;;;2.95;;
77262;SDS011;66373;52.334;4.806;2023-04-28T11:34:55;2.90;;;2.70;;
77262;SDS011;66373;52.334;4.806;2023-04-28T11:37:24;3.05;;;2.72;;
77262;SDS011;66373;52.334;4.806;2023-04-28T11:39:51;3.05;;;2.85;;
77262;SDS011;66373;52.334;4.806;2023-04-28T11:42:19;2.88;;;2.55;;
77262;SDS011;66373;52.334;4.806;2023-04-28T11:44:50;3.10;;;2.85;;
77262;SDS011;66373;52.334;4.806;2023-04-28T11:50:02;2.75;;;2.33;;
77262;SDS011;66373;52.334;4.806;2023-04-28T11:52:29;2.80;;;2.60;;
77262;SDS011;66373;52.334;4.806;2023-04-28T11:54:57;3.45;;;2.80;;
77262;SDS011;66373;52.334;4.806;2023-04-28T11:57:26;3.83;;;2.88;;
77262;SDS011;66373;52.334;4.806;2023-04-28T12:02:45;2.70;;;2.50;;
77262;SDS011;66373;52.334;4.806;2023-04-28T12:05:12;2.75;;;2.55;;
77262;SDS011;66373;52.334;4.806;2023-04-28T12:07:40;2.72;;;2.53;;
77262;SDS011;66373;52.334;4.806;2023-04-28T12:10:09;2.70;;;2.50;;
77262;SDS011;66373;52.334;4.806;2023-04-28T12:12:37;3.30;;;2.33;;
77262;SDS011;66373;52.334;4.806;2023-04-28T12:15:05;3.05;;;2.78;;
77262;SDS011;66373;52.334;4.806;2023-04-28T12:17:35;3.35;;;2.92;;
77262;SDS011;66373;52.334;4.806;2023-04-28T12:20:06;3.28;;;2.95;;
77262;SDS011;66373;52.334;4.806;2023-04-28T12:22:42;3.10;;;2.65;;
77262;SDS011;66373;52.334;4.806;2023-04-28T12:25:11;2.58;;;2.38;;
77262;SDS011;66373;52.334;4.806;2023-04-28T12:27:40;2.75;;;2.55;;
77262;SDS011;66373;52.334;4.806;2023-04-28T12:30:24;2.67;;;2.47;;
77262;SDS011;66373;52.334;4.806;2023-04-28T12:32:52;2.25;;;2.15;;
77262;SDS011;66373;52.334;4.806;2023-04-28T12:35:21;2.90;;;2.70;;
77262;SDS011;66373;52.334;4.806;2023-04-28T12:37:49;2.80;;;2.35;;
77262;SDS011;66373;52.334;4.806;2023-04-28T12:40:16;2.95;;;2.75;;
77262;SDS011;66373;52.334;4.806;2023-04-28T12:42:43;3.20;;;2.53;;
77262;SDS011;66373;52.334;4.806;2023-04-28T12:45:10;4.22;;;2.60;;
77262;SDS011;66373;52.334;4.806;2023-04-28T12:47:38;2.95;;;2.50;;
77262;SDS011;66373;52.334;4.806;2023-04-28T12:50:07;3.58;;;2.90;;
77262;SDS011;66373;52.334;4.806;2023-04-28T12:52:36;2.95;;;2.70;;
77262;SDS011;66373;52.334;4.806;2023-04-28T12:55:04;2.75;;;2.55;;
77262;SDS011;66373;52.334;4.806;2023-04-28T12:57:31;2.72;;;2.53;;
77262;SDS011;66373;52.334;4.806;2023-04-28T13:00:00;2.42;;;2.28;;
77262;SDS011;66373;52.334;4.806;2023-04-28T13:02:28;2.70;;;2.50;;
77262;SDS011;66373;52.334;4.806;2023-04-28T13:04:55;3.20;;;2.90;;
77262;SDS011;66373;52.334;4.806;2023-04-28T13:07:23;2.30;;;2.20;;
77262;SDS011;66373;52.334;4.806;2023-04-28T13:09:52;3.28;;;2.88;;
77262;SDS011;66373;52.334;4.806;2023-04-28T13:12:22;2.92;;;2.63;;
77262;SDS011;66373;52.334;4.806;2023-04-28T13:14:49;4.10;;;3.15;;
77262;SDS011;66373;52.334;4.806;2023-04-28T13:17:17;2.60;;;2.40;;
77262;SDS011;66373;52.334;4.806;2023-04-28T13:19:44;2.53;;;2.33;;
77262;SDS011;66373;52.334;4.806;2023-04-28T13:22:12;2.97;;;2.78;;
77262;SDS011;66373;52.334;4.806;2023-04-28T13:24:40;3.05;;;2.72;;
77262;SDS011;66373;52.334;4.806;2023-04-28T13:27:08;2.60;;;2.40;;
77262;SDS011;66373;52.334;4.806;2023-04-28T13:29:35;3.38;;;2.60;;
77262;SDS011;66373;52.334;4.806;2023-04-28T13:32:02;2.50;;;2.35;;
77262;SDS011;66373;52.334;4.806;2023-04-28T13:34:30;2.90;;;2.70;;
77262;SDS011;66373;52.334;4.806;2023-04-28T13:36:57;3.08;;;2.60;;
77262;SDS011;66373;52.334;4.806;2023-04-28T13:39:24;2.83;;;2.63;;
77262;SDS011;66373;52.334;4.806;2023-04-28T13:41:51;2.60;;;2.40;;
77262;SDS011;66373;52.334;4.806;2023-04-28T13:44:19;2.53;;;2.42;;
77262;SDS011;66373;52.334;4.806;2023-04-28T13:46:47;2.70;;;2.50;;
77262;SDS011;66373;52.334;4.806;2023-04-28T13:49:14;2.60;;;2.40;;
77262;SDS011;66373;52.334;4.806;2023-04-28T13:51:41;2.42;;;2.22;;
77262;SDS011;66373;52.334;4.806;2023-04-28T13:54:09;3.20;;;2.90;;
77262;SDS011;66373;52.334;4.806;2023-04-28T13:56:37;2.88;;;2.60;;
77262;SDS011;66373;52.334;4.806;2023-04-28T13:59:04;2.80;;;2.53;;
77262;SDS011;66373;52.334;4.806;2023-04-28T14:01:33;2.67;;;2.47;;
77262;SDS011;66373;52.334;4.806;2023-04-28T14:04:01;2.90;;;2.67;;
77262;SDS011;66373;52.334;4.806;2023-04-28T14:06:29;2.58;;;2.38;;
77262;SDS011;66373;52.334;4.806;2023-04-28T14:08:57;2.80;;;2.60;;
77262;SDS011;66373;52.334;4.806;2023-04-28T14:11:25;2.65;;;2.45;;
77262;SDS011;66373;52.334;4.806;2023-04-28T14:13:52;2.75;;;2.53;;
77262;SDS011;66373;52.334;4.806;2023-04-28T14:16:19;3.50;;;2.90;;
77262;SDS011;66373;52.334;4.806;2023-04-28T14:18:47;2.42;;;2.22;;
77262;SDS011;66373;52.334;4.806;2023-04-28T14:21:14;2.67;;;2.53;;
77262;SDS011;66373;52.334;4.806;2023-04-28T14:23:41;2.67;;;2.47;;
77262;SDS011;66373;52.334;4.806;2023-04-28T14:26:09;2.55;;;2.35;;
77262;SDS011;66373;52.334;4.806;2023-04-28T14:28:37;2.78;;;2.58;;
77262;SDS011;66373;52.334;4.806;2023-04-28T14:31:04;2.92;;;2.50;;
77262;SDS011;66373;52.334;4.806;2023-04-28T14:33:32;3.88;;;2.47;;
77262;SDS011;66373;52.334;4.806;2023-04-28T14:36:01;2.83;;;2.63;;
77262;SDS011;66373;52.334;4.806;2023-04-28T14:38:30;2.60;;;2.38;;
77262;SDS011;66373;52.334;4.806;2023-04-28T14:40:57;2.72;;;2.53;;
77262;SDS011;66373;52.334;4.806;2023-04-28T14:43:24;2.75;;;2.55;;
77262;SDS011;66373;52.334;4.806;2023-04-28T14:45:51;2.80;;;2.60;;
77262;SDS011;66373;52.334;4.806;2023-04-28T14:48:19;2.75;;;2.45;;
77262;SDS011;66373;52.334;4.806;2023-04-28T14:50:47;3.55;;;2.90;;
77262;SDS011;66373;52.334;4.806;2023-04-28T14:53:17;2.75;;;2.35;;
77262;SDS011;66373;52.334;4.806;2023-04-28T14:55:44;3.47;;;2.72;;
77262;SDS011;66373;52.334;4.806;2023-04-28T14:58:11;3.25;;;2.97;;
77262;SDS011;66373;52.334;4.806;2023-04-28T15:00:39;3.50;;;2.67;;
77262;SDS011;66373;52.334;4.806;2023-04-28T15:03:06;2.83;;;2.63;;
77262;SDS011;66373;52.334;4.806;2023-04-28T15:05:34;3.03;;;2.83;;
77262;SDS011;66373;52.334;4.806;2023-04-28T15:08:01;3.38;;;2.70;;
77262;SDS011;66373;52.334;4.806;2023-04-28T15:10:31;3.05;;;2.20;;
77262;SDS011;66373;52.334;4.806;2023-04-28T15:13:04;2.53;;;2.33;;
77262;SDS011;66373;52.334;4.806;2023-04-28T15:15:33;2.60;;;2.40;;
77262;SDS011;66373;52.334;4.806;2023-04-28T15:18:02;3.00;;;2.65;;
77262;SDS011;66373;52.334;4.806;2023-04-28T15:20:31;3.03;;;2.78;;